createdAt,value
2022-10-18T00:02:21.261Z,5.10
2022-10-18T00:04:47.991Z,5.55
2022-10-18T00:07:14.643Z,6.85
2022-10-18T00:09:41.349Z,7.43
2022-10-18T00:12:08.181Z,7.80
2022-10-18T00:14:34.863Z,8.90
2022-10-18T00:17:01.714Z,8.93
2022-10-18T00:19:29.366Z,8.73
2022-10-18T00:21:56.514Z,7.82
2022-10-18T00:24:23.174Z,7.22
2022-10-18T00:26:49.780Z,7.93
2022-10-18T00:29:17.972Z,7.35
2022-10-18T00:31:45.135Z,6.18
2022-10-18T00:34:14.692Z,5.97
2022-10-18T00:36:42.775Z,5.35
2022-10-18T00:39:15.799Z,6.10
2022-10-18T00:41:42.594Z,5.97
2022-10-18T00:44:12.246Z,5.72
2022-10-18T00:46:48.890Z,5.88
2022-10-18T00:49:27.374Z,4.68
2022-10-18T00:54:27.510Z,2.83
2022-10-18T00:56:54.392Z,2.00
2022-10-18T00:59:22.334Z,1.88
2022-10-18T01:01:49.219Z,1.70
2022-10-18T01:04:17.940Z,1.52
2022-10-18T01:07:19.561Z,2.30
2022-10-18T01:10:08.831Z,1.50
2022-10-18T01:12:53.891Z,1.50
2022-10-18T01:15:38.788Z,1.52
2022-10-18T01:18:25.080Z,1.50
2022-10-18T01:20:51.659Z,1.38
2022-10-18T01:23:35.839Z,1.27
2022-10-18T01:26:38.577Z,1.10
2022-10-18T01:29:23.963Z,1.48
2022-10-18T01:31:59.579Z,1.30
2022-10-18T01:34:31.433Z,1.30
2022-10-18T01:37:01.227Z,1.48
2022-10-18T01:39:32.003Z,1.00
2022-10-18T01:42:01.462Z,1.17
2022-10-18T01:44:31.892Z,1.10
2022-10-18T01:46:59.724Z,0.80
2022-10-18T01:49:27.380Z,0.95
2022-10-18T01:51:54.072Z,1.08
2022-10-18T01:54:30.962Z,1.00
2022-10-18T01:57:22.468Z,1.23
2022-10-18T02:00:01.734Z,1.02
2022-10-18T02:02:34.601Z,0.93
2022-10-18T02:05:23.215Z,2.38
2022-10-18T02:08:12.353Z,1.10
2022-10-18T02:10:51.073Z,1.30
2022-10-18T02:13:21.480Z,1.20
2022-10-18T02:15:54.600Z,1.20
2022-10-18T02:18:26.827Z,1.05
2022-10-18T02:23:25.800Z,1.52
2022-10-18T02:25:53.095Z,1.33
2022-10-18T02:28:21.305Z,1.40
2022-10-18T02:31:12.232Z,1.55
2022-10-18T02:33:56.725Z,1.60
2022-10-18T02:36:37.066Z,2.03
2022-10-18T02:39:11.581Z,2.65
2022-10-18T02:41:38.476Z,3.00
2022-10-18T02:44:05.220Z,2.80
2022-10-18T02:46:31.933Z,2.97
2022-10-18T02:48:58.684Z,2.40
2022-10-18T02:51:25.482Z,2.50
2022-10-18T02:53:52.382Z,2.50
2022-10-18T02:56:19.199Z,2.92
2022-10-18T02:58:45.866Z,2.35
2022-10-18T03:01:12.669Z,2.85
2022-10-18T03:03:39.293Z,3.20
2022-10-18T03:06:06.031Z,3.35
2022-10-18T03:08:32.662Z,2.80
2022-10-18T03:10:59.328Z,2.85
2022-10-18T03:13:25.981Z,2.95
2022-10-18T03:15:52.666Z,2.50
2022-10-18T03:18:19.348Z,2.50
2022-10-18T03:20:46.228Z,2.85
2022-10-18T03:23:12.972Z,2.90
2022-10-18T03:25:41.662Z,3.22
2022-10-18T03:28:10.940Z,2.53
2022-10-18T03:30:38.933Z,3.17
2022-10-18T03:33:06.618Z,2.00
2022-10-18T03:35:33.326Z,2.55
2022-10-18T03:37:59.959Z,2.50
2022-10-18T03:40:26.708Z,2.67
2022-10-18T03:42:53.376Z,2.13
2022-10-18T03:45:20.081Z,2.60
2022-10-18T03:47:46.723Z,1.98
2022-10-18T03:50:13.432Z,2.05
2022-10-18T03:52:40.090Z,1.63
2022-10-18T03:55:07.482Z,1.20
2022-10-18T03:57:34.205Z,1.20
2022-10-18T04:00:00.905Z,1.40
2022-10-18T04:02:27.589Z,1.60
2022-10-18T04:04:54.189Z,1.63
2022-10-18T04:07:20.845Z,1.58
2022-10-18T04:09:47.495Z,1.63
2022-10-18T04:12:14.240Z,1.33
2022-10-18T04:14:40.938Z,1.25
2022-10-18T04:17:08.368Z,1.35
2022-10-18T04:19:35.077Z,1.23
2022-10-18T04:22:01.927Z,1.70
2022-10-18T04:24:28.582Z,1.90
2022-10-18T04:26:55.297Z,1.33
2022-10-18T04:29:22.022Z,2.03
2022-10-18T04:31:48.681Z,2.42
2022-10-18T04:34:15.362Z,2.50
2022-10-18T04:36:42.080Z,1.70
2022-10-18T04:39:08.843Z,2.60
2022-10-18T04:41:36.158Z,2.85
2022-10-18T04:44:02.827Z,2.40
2022-10-18T04:46:29.529Z,2.35
2022-10-18T04:48:56.313Z,2.10
2022-10-18T04:51:23.235Z,2.45
2022-10-18T04:53:49.999Z,1.80
2022-10-18T04:56:16.743Z,2.15
2022-10-18T04:58:43.500Z,2.17
2022-10-18T05:01:10.201Z,1.77
2022-10-18T05:03:36.921Z,1.98
2022-10-18T05:06:04.199Z,1.40
2022-10-18T05:08:32.670Z,2.03
2022-10-18T05:11:00.130Z,1.52
2022-10-18T05:13:28.381Z,2.00
2022-10-18T05:15:56.992Z,2.00
2022-10-18T05:18:23.660Z,2.35
2022-10-18T05:20:50.366Z,2.30
2022-10-18T05:23:17.082Z,2.47
2022-10-18T05:25:43.997Z,2.80
2022-10-18T05:28:27.185Z,2.20
2022-10-18T05:31:04.936Z,1.95
2022-10-18T05:33:31.951Z,2.47
2022-10-18T05:35:58.868Z,2.55
2022-10-18T05:38:25.828Z,3.28
2022-10-18T05:40:52.593Z,2.22
2022-10-18T05:43:19.294Z,3.17
2022-10-18T05:45:51.713Z,3.30
2022-10-18T05:48:18.737Z,3.42
2022-10-18T05:50:45.623Z,3.33
2022-10-18T05:53:24.716Z,3.65
2022-10-18T05:56:02.720Z,4.18
2022-10-18T05:58:29.475Z,2.95
2022-10-18T06:01:00.211Z,2.70
2022-10-18T06:03:27.783Z,3.75
2022-10-18T06:06:03.387Z,4.07
2022-10-18T06:08:30.310Z,4.18
2022-10-18T06:10:57.261Z,3.70
2022-10-18T06:13:24.070Z,3.53
2022-10-18T06:15:50.939Z,3.90
2022-10-18T06:18:17.635Z,5.50
2022-10-18T06:20:44.263Z,4.90
2022-10-18T06:23:11.148Z,5.20
2022-10-18T06:25:37.795Z,4.18
2022-10-18T06:28:07.841Z,4.32
2022-10-18T06:30:37.099Z,4.22
2022-10-18T06:33:03.888Z,4.40
2022-10-18T06:35:30.502Z,4.13
2022-10-18T06:37:57.635Z,3.22
2022-10-18T06:40:24.541Z,4.50
2022-10-18T06:43:00.133Z,4.20
2022-10-18T06:45:27.439Z,3.97
2022-10-18T06:47:54.043Z,4.45
2022-10-18T06:50:20.688Z,4.55
2022-10-18T06:52:48.875Z,4.28
2022-10-18T06:55:15.620Z,3.97
2022-10-18T06:57:42.312Z,3.20
2022-10-18T07:00:09.596Z,3.63
2022-10-18T07:02:37.420Z,3.40
2022-10-18T07:05:04.293Z,3.58
2022-10-18T07:07:31.997Z,3.08
2022-10-18T07:09:58.872Z,3.13
2022-10-18T07:12:25.560Z,2.70
2022-10-18T07:14:52.255Z,3.60
2022-10-18T07:17:18.889Z,4.35
2022-10-18T07:19:45.561Z,3.92
2022-10-18T07:22:12.722Z,4.13
2022-10-18T07:24:39.453Z,3.95
2022-10-18T07:27:06.220Z,3.83
2022-10-18T07:29:33.675Z,4.35
2022-10-18T07:32:00.357Z,4.10
2022-10-18T07:34:28.878Z,4.35
2022-10-18T07:36:55.551Z,4.07
2022-10-18T07:39:22.340Z,3.92
2022-10-18T07:41:49.005Z,3.75
2022-10-18T07:44:15.646Z,3.17
2022-10-18T07:46:42.390Z,3.35
2022-10-18T07:49:09.088Z,3.53
2022-10-18T07:51:36.110Z,3.55
2022-10-18T07:54:03.050Z,3.80
2022-10-18T07:56:29.756Z,2.90
2022-10-18T07:58:56.578Z,2.67
2022-10-18T08:01:24.769Z,3.10
2022-10-18T08:03:52.415Z,2.42
2022-10-18T08:06:21.098Z,3.10
2022-10-18T08:08:47.908Z,2.88
2022-10-18T08:11:17.576Z,3.38
2022-10-18T08:13:44.437Z,3.40
2022-10-18T08:16:13.862Z,3.15
2022-10-18T08:18:41.002Z,3.13
2022-10-18T08:21:10.260Z,2.78
2022-10-18T08:23:37.718Z,2.53
2022-10-18T08:26:06.772Z,2.95
2022-10-18T08:28:36.544Z,2.40
2022-10-18T08:31:08.294Z,3.20
2022-10-18T08:33:36.189Z,2.60
2022-10-18T08:36:08.099Z,2.72
2022-10-18T08:38:36.605Z,2.70
2022-10-18T08:41:28.302Z,3.08
2022-10-18T08:44:07.313Z,2.95
2022-10-18T08:46:37.196Z,3.13
2022-10-18T08:49:05.624Z,3.03
2022-10-18T08:51:38.148Z,3.10
2022-10-18T08:54:04.860Z,3.15
2022-10-18T08:56:33.745Z,3.67
2022-10-18T08:59:04.061Z,3.30
2022-10-18T09:01:33.529Z,3.65
2022-10-18T09:04:26.329Z,4.00
2022-10-18T09:07:46.893Z,4.00
2022-10-18T09:10:21.733Z,3.70
2022-10-18T09:13:11.325Z,3.35
2022-10-18T09:15:59.847Z,4.43
2022-10-18T09:18:51.401Z,3.78
2022-10-18T09:21:32.184Z,3.75
2022-10-18T09:24:21.847Z,4.25
2022-10-18T09:26:51.548Z,4.25
2022-10-18T09:29:38.064Z,4.47
2022-10-18T09:32:27.828Z,4.20
2022-10-18T09:35:17.987Z,4.47
2022-10-18T09:37:45.544Z,3.97
2022-10-18T09:40:19.144Z,6.00
2022-10-18T09:42:56.721Z,6.75
2022-10-18T09:45:33.940Z,6.93
2022-10-18T09:48:14.740Z,6.80
2022-10-18T09:50:54.725Z,6.35
2022-10-18T09:53:50.592Z,6.72
2022-10-18T09:56:24.813Z,5.55
2022-10-18T09:58:52.051Z,5.53
2022-10-18T10:01:22.959Z,5.65
2022-10-18T10:03:49.863Z,5.50
2022-10-18T10:06:17.745Z,5.40
2022-10-18T10:08:49.056Z,4.80
2022-10-18T10:11:37.880Z,4.53
2022-10-18T10:14:19.414Z,4.20
2022-10-18T10:16:53.577Z,4.07
2022-10-18T10:19:24.994Z,3.50
2022-10-18T10:21:56.895Z,3.33
2022-10-18T10:24:31.157Z,3.20
2022-10-18T10:27:14.951Z,4.03
2022-10-18T10:29:47.561Z,3.92
2022-10-18T10:32:19.721Z,4.22
2022-10-18T10:37:36.532Z,3.50
2022-10-18T10:40:18.744Z,3.50
2022-10-18T10:43:25.654Z,3.63
2022-10-18T10:48:28.805Z,3.20
2022-10-18T10:51:12.080Z,2.80
2022-10-18T10:54:00.701Z,3.55
2022-10-18T10:56:31.112Z,3.15
2022-10-18T10:59:18.789Z,2.70
2022-10-18T11:01:47.717Z,3.35
2022-10-18T11:04:24.088Z,2.97
2022-10-18T11:07:09.611Z,3.22
2022-10-18T11:09:53.354Z,2.35
2022-10-18T11:12:52.312Z,3.28
2022-10-18T11:15:36.612Z,3.10
2022-10-18T11:18:19.773Z,3.30
2022-10-18T11:21:01.863Z,2.95
2022-10-18T11:23:32.928Z,2.85
2022-10-18T11:26:08.718Z,3.50
2022-10-18T11:29:13.999Z,3.28
2022-10-18T11:32:18.910Z,3.47
2022-10-18T11:34:45.521Z,3.08
2022-10-18T11:37:51.008Z,3.20
2022-10-18T11:40:57.815Z,2.83
2022-10-18T11:43:57.005Z,2.80
2022-10-18T11:46:37.074Z,3.17
2022-10-18T11:49:28.322Z,2.30
2022-10-18T11:52:12.610Z,2.47
2022-10-18T11:54:59.114Z,3.13
2022-10-18T11:57:34.070Z,3.40
2022-10-18T12:00:30.761Z,3.53
2022-10-18T12:03:29.180Z,2.50
2022-10-18T12:05:58.123Z,2.78
2022-10-18T12:08:47.967Z,3.65
2022-10-18T12:11:38.070Z,3.03
2022-10-18T12:14:19.682Z,3.08
2022-10-18T12:16:52.247Z,3.03
2022-10-18T12:19:31.108Z,3.65
2022-10-18T12:22:23.080Z,3.60
2022-10-18T12:24:50.024Z,3.08
2022-10-18T12:27:18.598Z,3.70
2022-10-18T12:29:54.784Z,3.55
2022-10-18T12:32:32.510Z,3.08
2022-10-18T12:35:15.410Z,2.63
2022-10-18T12:38:09.233Z,2.78
2022-10-18T12:40:43.377Z,2.92
2022-10-18T12:43:17.528Z,3.20
2022-10-18T12:46:13.032Z,3.03
2022-10-18T12:48:43.029Z,3.35
2022-10-18T12:51:19.263Z,4.00
2022-10-18T12:54:02.820Z,4.85
2022-10-18T12:56:29.466Z,5.00
2022-10-18T12:59:16.979Z,5.10
2022-10-18T13:01:52.907Z,5.00
2022-10-18T13:04:28.802Z,5.32
2022-10-18T13:06:58.680Z,4.60
2022-10-18T13:09:26.414Z,4.57
2022-10-18T13:12:02.139Z,5.13
2022-10-18T13:15:25.576Z,5.90
2022-10-18T13:18:05.686Z,5.50
2022-10-18T13:20:38.105Z,5.05
2022-10-18T13:23:13.512Z,5.13
2022-10-18T13:25:50.583Z,5.03
2022-10-18T13:28:32.291Z,5.97
2022-10-18T13:31:08.488Z,5.10
2022-10-18T13:33:39.160Z,4.55
2022-10-18T13:36:22.647Z,5.13
2022-10-18T13:39:02.467Z,4.72
2022-10-18T13:41:56.660Z,4.90
2022-10-18T13:44:37.684Z,4.72
2022-10-18T13:47:04.358Z,4.18
2022-10-18T13:49:39.872Z,5.25
2022-10-18T13:52:28.191Z,5.60
2022-10-18T13:55:28.609Z,4.50
2022-10-18T13:58:20.828Z,5.32
2022-10-18T14:01:14.277Z,5.15
2022-10-18T14:04:08.936Z,5.50
2022-10-18T14:06:38.475Z,6.13
2022-10-18T14:09:32.881Z,5.70
2022-10-18T14:12:28.638Z,5.85
2022-10-18T14:15:07.533Z,6.20
2022-10-18T14:17:46.222Z,6.28
2022-10-18T14:21:01.368Z,6.20
2022-10-18T14:23:44.594Z,6.25
2022-10-18T14:26:17.128Z,6.13
2022-10-18T14:29:00.712Z,6.70
2022-10-18T14:31:28.166Z,6.57
2022-10-18T14:33:58.442Z,6.78
2022-10-18T14:36:29.317Z,6.00
2022-10-18T14:39:05.089Z,6.13
2022-10-18T14:41:32.890Z,6.53
2022-10-18T14:44:14.483Z,5.72
2022-10-18T14:46:49.565Z,5.70
2022-10-18T14:49:17.962Z,6.18
2022-10-18T14:51:47.303Z,6.55
2022-10-18T14:54:18.474Z,5.30
2022-10-18T14:56:45.519Z,5.75
2022-10-18T14:59:27.222Z,5.53
2022-10-18T15:02:14.572Z,5.90
2022-10-18T15:04:44.804Z,6.15
2022-10-18T15:07:17.558Z,5.60
2022-10-18T15:09:45.492Z,5.40
2022-10-18T15:12:15.105Z,6.40
2022-10-18T15:14:43.321Z,6.72
2022-10-18T15:17:31.275Z,5.68
2022-10-18T15:20:05.111Z,5.68
2022-10-18T15:22:34.848Z,5.82
2022-10-18T15:25:17.315Z,5.18
2022-10-18T15:27:51.337Z,5.97
2022-10-18T15:30:30.243Z,5.65
2022-10-18T15:33:03.040Z,6.70
2022-10-18T15:35:33.326Z,5.90
2022-10-18T15:38:04.451Z,5.75
2022-10-18T15:40:35.042Z,5.72
2022-10-18T15:43:05.932Z,5.57
2022-10-18T15:45:38.553Z,4.82
2022-10-18T15:48:12.069Z,5.90
2022-10-18T15:50:50.477Z,5.57
2022-10-18T15:53:32.228Z,4.32
2022-10-18T15:56:02.224Z,5.50
2022-10-18T15:58:42.180Z,5.43
2022-10-18T16:01:18.462Z,8.13
2022-10-18T16:03:47.162Z,7.82
2022-10-18T16:06:18.123Z,7.93
2022-10-18T16:08:49.196Z,8.75
2022-10-18T16:11:22.060Z,8.30
2022-10-18T16:13:50.172Z,8.50
2022-10-18T16:16:28.268Z,9.13
2022-10-18T16:18:55.891Z,10.07
2022-10-18T16:21:29.630Z,8.15
2022-10-18T16:23:57.093Z,7.90
2022-10-18T16:26:25.395Z,8.52
2022-10-18T16:28:53.331Z,8.63
2022-10-18T16:31:25.055Z,9.23
2022-10-18T16:33:52.973Z,7.32
2022-10-18T16:36:22.375Z,7.88
2022-10-18T16:38:49.546Z,7.85
2022-10-18T16:41:16.845Z,8.38
2022-10-18T16:43:45.608Z,8.55
2022-10-18T16:46:18.583Z,7.30
2022-10-18T16:48:46.393Z,7.35
2022-10-18T16:51:13.801Z,8.45
2022-10-18T16:53:41.261Z,7.35
2022-10-18T16:56:16.264Z,7.38
2022-10-18T16:58:45.047Z,8.18
2022-10-18T17:01:17.649Z,7.30
2022-10-18T17:03:45.025Z,7.72
2022-10-18T17:06:27.053Z,7.75
2022-10-18T17:08:55.485Z,7.10
2022-10-18T17:11:24.999Z,7.05
2022-10-18T17:13:52.965Z,5.93
2022-10-18T17:16:31.882Z,7.13
2022-10-18T17:19:01.430Z,6.22
2022-10-18T17:21:40.257Z,6.88
2022-10-18T17:24:09.614Z,5.93
2022-10-18T17:26:38.947Z,6.40
2022-10-18T17:29:08.444Z,6.68
2022-10-18T17:31:37.267Z,6.53
2022-10-18T17:34:04.633Z,5.95
2022-10-18T17:36:33.328Z,6.00
2022-10-18T17:39:01.096Z,6.30
2022-10-18T17:41:28.466Z,7.10
2022-10-18T17:43:55.877Z,6.45
2022-10-18T17:46:23.727Z,5.90
2022-10-18T17:48:50.424Z,6.10
2022-10-18T17:51:17.676Z,6.50
2022-10-18T17:53:44.880Z,5.57
2022-10-18T17:56:12.967Z,5.63
2022-10-18T17:58:39.911Z,5.57
2022-10-18T18:01:18.993Z,5.22
2022-10-18T18:03:47.664Z,4.60
2022-10-18T18:06:15.721Z,4.90
2022-10-18T18:08:42.489Z,4.72
2022-10-18T18:11:09.117Z,5.20
2022-10-18T18:13:35.839Z,4.60
2022-10-18T18:16:13.369Z,4.18
2022-10-18T18:18:40.204Z,5.28
2022-10-18T18:21:06.967Z,4.20
2022-10-18T18:23:33.620Z,5.00
2022-10-18T18:26:00.375Z,4.35
2022-10-18T18:28:27.137Z,5.30
2022-10-18T18:30:53.889Z,4.90
2022-10-18T18:33:20.564Z,5.50
2022-10-18T18:35:59.498Z,5.22
2022-10-18T18:38:26.683Z,5.50
2022-10-18T18:41:03.789Z,6.32
2022-10-18T18:43:30.507Z,5.80
2022-10-18T18:45:57.274Z,5.07
2022-10-18T18:48:24.417Z,4.85
2022-10-18T18:50:52.231Z,5.65
2022-10-18T18:53:19.582Z,5.13
2022-10-18T18:55:46.480Z,4.28
2022-10-18T18:58:13.195Z,4.55
2022-10-18T19:00:44.238Z,4.97
2022-10-18T19:03:12.311Z,5.05
2022-10-18T19:05:39.167Z,4.55
2022-10-18T19:08:06.280Z,4.85
2022-10-18T19:10:32.998Z,5.18
2022-10-18T19:12:59.804Z,4.57
2022-10-18T19:15:26.613Z,4.30
2022-10-18T19:17:53.299Z,5.05
2022-10-18T19:20:20.053Z,4.70
2022-10-18T19:22:46.649Z,4.72
2022-10-18T19:25:13.504Z,4.82
2022-10-18T19:27:40.314Z,5.45
2022-10-18T19:30:09.623Z,5.82
2022-10-18T19:32:36.287Z,6.63
2022-10-18T19:35:03.080Z,6.13
2022-10-18T19:37:29.847Z,6.72
2022-10-18T19:39:56.676Z,7.57
2022-10-18T19:42:27.515Z,6.13
2022-10-18T19:44:57.229Z,5.78
2022-10-18T19:47:23.855Z,5.70
2022-10-18T19:49:51.788Z,4.63
2022-10-18T19:52:18.510Z,6.35
2022-10-18T19:54:45.182Z,6.45
2022-10-18T19:57:11.857Z,5.85
2022-10-18T19:59:42.403Z,5.43
2022-10-18T20:02:14.192Z,5.00
2022-10-18T20:04:40.948Z,5.40
2022-10-18T20:07:07.580Z,4.88
2022-10-18T20:09:34.313Z,6.65
2022-10-18T20:12:01.054Z,5.40
2022-10-18T20:14:28.065Z,5.00
2022-10-18T20:16:54.703Z,6.53
2022-10-18T20:19:21.377Z,6.57
2022-10-18T20:21:47.989Z,6.00
2022-10-18T20:24:14.624Z,5.45
2022-10-18T20:26:43.328Z,5.53
2022-10-18T20:29:10.093Z,6.78
2022-10-18T20:31:39.320Z,5.60
2022-10-18T20:34:08.437Z,6.30
2022-10-18T20:36:35.565Z,5.25
2022-10-18T20:39:04.329Z,5.07
2022-10-18T20:41:34.634Z,5.32
2022-10-18T20:44:04.370Z,5.15
2022-10-18T20:46:35.859Z,5.18
2022-10-18T20:49:04.292Z,5.72
2022-10-18T20:51:33.463Z,5.50
2022-10-18T20:54:01.712Z,4.95
2022-10-18T20:56:28.683Z,5.90
2022-10-18T20:58:56.869Z,5.80
2022-10-18T21:01:29.333Z,6.13
2022-10-18T21:03:57.846Z,5.70
2022-10-18T21:06:29.740Z,5.55
2022-10-18T21:08:58.663Z,6.03
2022-10-18T21:11:27.342Z,4.60
2022-10-18T21:14:00.195Z,4.95
2022-10-18T21:16:27.374Z,5.72
2022-10-18T21:18:54.111Z,5.53
2022-10-18T21:21:23.181Z,5.97
2022-10-18T21:23:50.850Z,6.45
2022-10-18T21:26:26.273Z,5.82
2022-10-18T21:28:55.043Z,7.25
2022-10-18T21:31:27.448Z,5.18
2022-10-18T21:33:56.343Z,5.70
2022-10-18T21:36:23.461Z,5.72
2022-10-18T21:38:50.856Z,4.97
2022-10-18T21:41:18.636Z,4.38
2022-10-18T21:43:48.034Z,5.10
2022-10-18T21:46:16.672Z,4.95
2022-10-18T21:48:45.209Z,5.40
2022-10-18T21:51:13.253Z,5.18
2022-10-18T21:53:43.648Z,5.13
2022-10-18T21:56:17.047Z,5.90
2022-10-18T21:58:44.147Z,4.95
2022-10-18T22:01:17.121Z,5.00
2022-10-18T22:03:45.086Z,4.95
2022-10-18T22:06:14.669Z,3.97
2022-10-18T22:08:47.604Z,5.20
2022-10-18T22:11:14.875Z,4.97
2022-10-18T22:13:42.096Z,5.28
2022-10-18T22:16:10.922Z,5.47
2022-10-18T22:18:37.761Z,5.38
2022-10-18T22:21:06.892Z,5.20
2022-10-18T22:23:36.018Z,4.57
2022-10-18T22:26:08.747Z,4.28
2022-10-18T22:28:36.189Z,4.00
2022-10-18T22:31:03.436Z,4.68
2022-10-18T22:33:30.750Z,4.22
2022-10-18T22:35:57.626Z,3.83
2022-10-18T22:38:24.447Z,4.90
2022-10-18T22:40:51.781Z,4.32
2022-10-18T22:43:20.002Z,5.40
2022-10-18T22:45:46.655Z,4.85
2022-10-18T22:48:13.323Z,5.38
2022-10-18T22:50:39.974Z,5.03
2022-10-18T22:53:06.573Z,4.53
2022-10-18T22:55:33.250Z,4.07
2022-10-18T22:57:59.888Z,3.60
2022-10-18T23:00:26.666Z,4.70
2022-10-18T23:02:53.383Z,4.93
2022-10-18T23:05:20.063Z,5.47
2022-10-18T23:07:49.602Z,4.07
2022-10-18T23:10:16.825Z,4.00
2022-10-18T23:12:44.191Z,4.15
2022-10-18T23:15:11.042Z,3.55
2022-10-18T23:17:37.834Z,5.65
2022-10-18T23:20:05.683Z,3.53
2022-10-18T23:22:33.560Z,3.95
2022-10-18T23:25:00.377Z,4.32
2022-10-18T23:27:28.717Z,4.38
2022-10-18T23:29:55.396Z,4.75
2022-10-18T23:32:22.111Z,5.38
2022-10-18T23:34:48.860Z,4.68
2022-10-18T23:37:15.525Z,4.78
2022-10-18T23:39:42.127Z,5.85
2022-10-18T23:42:08.835Z,5.13
2022-10-18T23:44:35.436Z,5.35
2022-10-18T23:47:02.209Z,6.90
2022-10-18T23:49:28.882Z,5.70
2022-10-18T23:51:55.521Z,5.85
2022-10-18T23:54:22.243Z,6.25
2022-10-18T23:56:49.062Z,5.35
2022-10-18T23:59:15.860Z,5.85
